Time;durP1;ratioP1;P1;durP2;ratioP2;P2;SDS_P1;SDS_P2;PMS_P1;PMS_P2;Temp;Humidity;BMP_temperature;BMP_pressure;BME280_temperature;BME280_humidity;BME280_pressure;Samples;Min_cycle;Max_cycle;Signal;HPM_P1;HPM_P2
2020/12/03 00:00:28;;;;;;;11.87;10.03;;;19.70;45.10;;;;;;5048937;28;21141;-68
2020/12/03 00:02:55;;;;;;;12.87;10.00;;;19.70;45.10;;;;;;5058610;28;20569;-68
2020/12/03 00:05:21;;;;;;;12.40;10.73;;;19.70;45.00;;;;;;5060255;28;20514;-69
2020/12/03 00:07:48;;;;;;;15.47;10.80;;;19.70;44.90;;;;;;5058419;28;21217;-69
2020/12/03 00:10:14;;;;;;;12.80;10.97;;;19.70;44.90;;;;;;4997347;28;20479;-69
2020/12/03 00:12:41;;;;;;;12.13;9.10;;;19.70;45.00;;;;;;5067099;28;20492;-70
2020/12/03 00:15:07;;;;;;;13.13;10.30;;;19.70;45.10;;;;;;5086380;28;21065;-70
2020/12/03 00:17:33;;;;;;;11.07;9.67;;;19.60;44.90;;;;;;5070072;28;20508;-69
2020/12/03 00:20:15;;;;;;;12.53;9.53;;;19.70;45.10;;;;;;5047348;28;20477;-69
2020/12/03 00:22:41;;;;;;;9.93;8.93;;;19.70;45.10;;;;;;5081131;28;20484;-70
2020/12/03 00:25:07;;;;;;;11.67;10.33;;;19.70;45.10;;;;;;5053499;28;20517;-71
2020/12/03 00:27:34;;;;;;;13.10;9.67;;;19.70;45.10;;;;;;5037356;28;20498;-68
2020/12/03 00:30:00;;;;;;;10.67;9.47;;;19.70;45.00;;;;;;5040768;28;20541;-69
2020/12/03 00:32:26;;;;;;;10.77;9.20;;;19.60;45.00;;;;;;5045315;28;21303;-71
2020/12/03 00:34:52;;;;;;;11.47;9.83;;;19.60;45.00;;;;;;5035323;28;20504;-68
2020/12/03 00:37:18;;;;;;;12.03;10.23;;;19.60;45.00;;;;;;5051264;28;20538;-69
2020/12/03 00:39:44;;;;;;;11.93;9.67;;;19.60;45.00;;;;;;5054920;28;20494;-69
2020/12/03 00:42:10;;;;;;;10.63;9.57;;;19.60;44.90;;;;;;5041642;28;20485;-69
2020/12/03 00:44:37;;;;;;;10.93;9.70;;;19.60;44.90;;;;;;5042545;28;22358;-69
2020/12/03 00:47:03;;;;;;;13.47;10.17;;;19.60;45.00;;;;;;5033980;28;20478;-69
2020/12/03 00:49:29;;;;;;;14.53;9.93;;;19.60;44.90;;;;;;5040815;28;20483;-70
2020/12/03 00:51:55;;;;;;;12.30;10.30;;;19.60;44.60;;;;;;5025858;28;20481;-69
2020/12/03 00:54:22;;;;;;;10.53;9.00;;;19.60;44.60;;;;;;5042013;28;20523;-69
2020/12/03 00:56:48;;;;;;;14.43;10.60;;;19.60;44.60;;;;;;5025267;28;20531;-70
2020/12/03 00:59:14;;;;;;;17.70;11.77;;;19.60;44.60;;;;;;5046161;28;20535;-70
2020/12/03 01:01:41;;;;;;;11.33;8.30;;;19.60;44.60;;;;;;5049730;28;20546;-70
2020/12/03 01:04:07;;;;;;;14.30;9.60;;;19.60;44.60;;;;;;5053783;28;20481;-71
2020/12/03 01:06:33;;;;;;;12.30;10.10;;;19.60;44.60;;;;;;5068351;28;20547;-69
2020/12/03 01:08:59;;;;;;;12.27;8.93;;;19.70;44.70;;;;;;5069153;28;20491;-69
2020/12/03 01:11:25;;;;;;;12.40;9.93;;;19.70;44.70;;;;;;5041987;28;20478;-70
2020/12/03 01:13:51;;;;;;;11.77;9.67;;;19.70;44.60;;;;;;5042441;28;20475;-69
2020/12/03 01:16:18;;;;;;;11.13;9.70;;;19.70;44.50;;;;;;5055238;28;21301;-69
2020/12/03 01:18:45;;;;;;;12.40;9.70;;;19.70;44.60;;;;;;5048402;28;20639;-70
2020/12/03 01:21:12;;;;;;;12.43;9.10;;;19.70;44.50;;;;;;5053507;28;20543;-69
2020/12/03 01:23:38;;;;;;;11.87;10.10;;;19.70;44.40;;;;;;5053753;28;20482;-69
2020/12/03 01:26:04;;;;;;;13.00;9.43;;;19.70;44.50;;;;;;5051898;28;20904;-69
2020/12/03 01:28:30;;;;;;;12.37;10.37;;;19.70;44.60;;;;;;5069867;28;20500;-70
2020/12/03 01:30:56;;;;;;;10.97;9.10;;;19.60;44.40;;;;;;5056350;28;20486;-70
2020/12/03 01:33:22;;;;;;;15.83;9.50;;;19.60;44.30;;;;;;5056069;28;20478;-71
2020/12/03 01:35:49;;;;;;;10.10;8.00;;;19.60;44.30;;;;;;5041937;28;20481;-69
2020/12/03 01:38:15;;;;;;;12.50;10.30;;;19.60;44.40;;;;;;5058249;28;20566;-70
2020/12/03 01:40:41;;;;;;;12.90;9.73;;;19.70;44.50;;;;;;5055262;28;20531;-72
2020/12/03 01:43:07;;;;;;;12.37;10.70;;;19.70;44.60;;;;;;5042116;28;20485;-70
2020/12/03 01:45:51;;;;;;;10.77;9.10;;;19.70;44.40;;;;;;5038064;28;20478;-70
2020/12/03 01:48:28;;;;;;;12.80;9.07;;;19.70;44.40;;;;;;5045275;28;20486;-69
2020/12/03 01:50:54;;;;;;;11.30;9.70;;;19.70;44.40;;;;;;5051009;28;20527;-68
2020/12/03 01:53:21;;;;;;;13.30;9.83;;;19.70;44.30;;;;;;5050444;28;20478;-69
2020/12/03 01:55:47;;;;;;;12.77;9.57;;;19.70;44.40;;;;;;5040005;28;20924;-68
2020/12/03 01:58:19;;;;;;;14.00;9.93;;;19.60;44.40;;;;;;5069150;28;20546;-69
2020/12/03 02:00:45;;;;;;;14.30;10.47;;;19.60;44.30;;;;;;5070705;28;20477;-67
2020/12/03 02:03:11;;;;;;;10.80;9.70;;;19.60;44.30;;;;;;5070863;28;20485;-69
2020/12/03 02:05:37;;;;;;;11.50;9.00;;;19.60;44.40;;;;;;5071539;28;21056;-68
2020/12/03 02:08:04;;;;;;;10.10;8.63;;;19.60;44.50;;;;;;5066886;28;20488;-69
2020/12/03 02:10:30;;;;;;;11.87;9.80;;;19.60;44.50;;;;;;5065515;28;20486;-68
2020/12/03 02:12:57;;;;;;;12.60;9.70;;;19.60;44.20;;;;;;5077180;28;20474;-70
2020/12/03 02:15:23;;;;;;;12.50;10.20;;;19.50;44.10;;;;;;5073877;28;21248;-68
2020/12/03 02:17:49;;;;;;;10.57;8.93;;;19.60;44.20;;;;;;5071431;28;20489;-70
2020/12/03 02:20:17;;;;;;;15.47;9.17;;;19.60;44.30;;;;;;5068520;28;20491;-68
2020/12/03 02:22:43;;;;;;;11.63;8.40;;;19.60;44.20;;;;;;5057742;28;20482;-70
2020/12/03 02:25:09;;;;;;;10.47;9.07;;;19.60;44.30;;;;;;5065169;28;20474;-69
2020/12/03 02:27:37;;;;;;;13.73;9.40;;;19.60;44.40;;;;;;5073556;28;20468;-68
2020/12/03 02:30:03;;;;;;;11.20;9.40;;;19.60;44.40;;;;;;5071795;28;20512;-69
2020/12/03 02:32:30;;;;;;;11.53;10.03;;;19.60;44.30;;;;;;5064720;28;20488;-69
2020/12/03 02:34:56;;;;;;;11.03;9.03;;;19.60;44.40;;;;;;5070596;28;20490;-70
2020/12/03 02:37:22;;;;;;;13.67;10.20;;;19.60;44.20;;;;;;5086872;28;21000;-69
2020/12/03 02:39:48;;;;;;;11.23;9.13;;;19.50;44.30;;;;;;5051394;28;20489;-70
2020/12/03 02:42:15;;;;;;;11.10;9.13;;;19.50;44.30;;;;;;5061982;28;20473;-68
2020/12/03 02:44:41;;;;;;;11.40;8.70;;;19.50;44.30;;;;;;5067557;28;20672;-67
2020/12/03 02:47:08;;;;;;;9.53;8.53;;;19.50;44.30;;;;;;5071867;28;20476;-69
2020/12/03 02:49:35;;;;;;;13.97;9.90;;;19.50;44.30;;;;;;5063625;28;20476;-68
2020/12/03 02:52:01;;;;;;;11.43;9.67;;;19.50;44.30;;;;;;5070817;28;20521;-69
2020/12/03 02:54:28;;;;;;;10.57;9.47;;;19.50;44.30;;;;;;5073818;28;21606;-69
2020/12/03 02:56:54;;;;;;;10.37;8.87;;;19.50;44.30;;;;;;5040311;28;20486;-69
2020/12/03 02:59:20;;;;;;;11.00;8.77;;;19.50;44.20;;;;;;5068635;28;20823;-68
2020/12/03 03:01:46;;;;;;;10.23;8.30;;;19.50;44.30;;;;;;5066887;28;20532;-69
2020/12/03 03:04:12;;;;;;;12.10;8.70;;;19.50;44.30;;;;;;5080511;28;20535;-72
2020/12/03 03:06:38;;;;;;;11.97;9.17;;;19.50;44.40;;;;;;5060701;28;20517;-71
2020/12/03 03:09:05;;;;;;;11.77;8.67;;;19.50;44.30;;;;;;5078146;28;20481;-71
2020/12/03 03:11:32;;;;;;;10.20;8.37;;;19.50;44.30;;;;;;5074158;28;20893;-70
2020/12/03 03:14:00;;;;;;;12.13;10.27;;;19.50;44.10;;;;;;5074116;28;20481;-69
2020/12/03 03:16:26;;;;;;;12.20;9.20;;;19.50;44.10;;;;;;5072529;28;20572;-69
2020/12/03 03:18:52;;;;;;;12.13;9.83;;;19.50;44.10;;;;;;5073137;28;20912;-70
2020/12/03 03:21:18;;;;;;;13.90;10.80;;;19.50;44.10;;;;;;5077997;28;20528;-70
2020/12/03 03:23:44;;;;;;;13.70;9.80;;;19.50;44.10;;;;;;5075713;28;20476;-68
2020/12/03 03:26:10;;;;;;;11.60;9.30;;;19.50;44.10;;;;;;5061323;28;20546;-70
2020/12/03 03:28:37;;;;;;;10.83;8.90;;;19.50;44.10;;;;;;5064297;28;20492;-69
2020/12/03 03:31:03;;;;;;;12.20;10.00;;;19.50;44.10;;;;;;5059337;28;20550;-69
2020/12/03 03:33:29;;;;;;;10.87;8.97;;;19.50;44.10;;;;;;5063899;28;20534;-70
2020/12/03 03:35:55;;;;;;;10.60;9.20;;;19.50;44.20;;;;;;5060839;28;20496;-69
2020/12/03 03:38:21;;;;;;;11.53;9.03;;;19.50;44.20;;;;;;5058595;28;20477;-69
2020/12/03 03:40:47;;;;;;;10.60;9.17;;;19.50;44.20;;;;;;5058753;28;21533;-69
2020/12/03 03:43:13;;;;;;;11.73;9.37;;;19.50;44.10;;;;;;5067962;28;20893;-71
2020/12/03 03:45:40;;;;;;;9.37;8.43;;;19.50;44.20;;;;;;5045897;28;20494;-72
2020/12/03 03:48:06;;;;;;;11.07;9.07;;;19.50;44.20;;;;;;5059356;28;20531;-70
2020/12/03 03:50:32;;;;;;;9.73;8.73;;;19.40;44.10;;;;;;5059365;28;20891;-69
2020/12/03 03:52:58;;;;;;;11.97;8.87;;;19.50;44.10;;;;;;5057306;28;20519;-70
2020/12/03 03:55:24;;;;;;;11.10;9.90;;;19.40;44.10;;;;;;5071758;28;20541;-69
2020/12/03 03:57:50;;;;;;;10.93;9.40;;;19.40;44.10;;;;;;5058756;28;20477;-70
2020/12/03 04:00:17;;;;;;;10.80;9.80;;;19.40;43.90;;;;;;5059652;28;20488;-70
2020/12/03 04:02:44;;;;;;;12.87;8.83;;;19.50;44.00;;;;;;5050335;28;20523;-69
2020/12/03 04:05:10;;;;;;;14.60;8.50;;;19.50;44.00;;;;;;5051784;28;20497;-67
2020/12/03 04:07:36;;;;;;;10.40;8.10;;;19.50;43.90;;;;;;5058532;28;20484;-69
2020/12/03 04:10:03;;;;;;;13.90;9.30;;;19.50;43.80;;;;;;5070985;28;20547;-69
2020/12/03 04:12:29;;;;;;;10.30;9.20;;;19.50;43.60;;;;;;5060206;28;20485;-69
2020/12/03 04:14:55;;;;;;;10.13;8.60;;;19.60;43.70;;;;;;5066609;28;20478;-69
2020/12/03 04:17:22;;;;;;;11.60;9.80;;;19.60;43.70;;;;;;5047771;28;20495;-71
2020/12/03 04:19:48;;;;;;;12.60;9.80;;;19.70;43.70;;;;;;5068463;28;20993;-70
2020/12/03 04:22:14;;;;;;;11.10;9.17;;;19.70;43.20;;;;;;5050010;28;20490;-68
2020/12/03 04:24:40;;;;;;;10.33;8.57;;;19.70;43.00;;;;;;5046044;28;20598;-69
2020/12/03 04:27:07;;;;;;;11.50;8.57;;;19.70;42.80;;;;;;5036443;28;20515;-71
2020/12/03 04:29:33;;;;;;;12.47;10.37;;;19.70;42.80;;;;;;5051127;28;21035;-69
2020/12/03 04:31:59;;;;;;;13.17;9.67;;;19.70;42.90;;;;;;5055200;28;20925;-69
2020/12/03 04:34:25;;;;;;;12.10;9.40;;;19.70;42.80;;;;;;5059638;28;21082;-71
2020/12/03 04:36:52;;;;;;;15.00;10.47;;;19.60;42.80;;;;;;5059963;28;20507;-69
2020/12/03 04:39:18;;;;;;;11.40;8.93;;;19.60;42.80;;;;;;5067736;28;20473;-69
2020/12/03 04:41:44;;;;;;;12.27;9.77;;;19.60;42.90;;;;;;5029242;28;20897;-68
2020/12/03 04:44:16;;;;;;;11.70;8.90;;;19.60;42.90;;;;;;5044351;28;20600;-70
2020/12/03 04:46:44;;;;;;;12.90;8.67;;;19.60;43.20;;;;;;5051737;28;20519;-69
2020/12/03 04:49:25;;;;;;;12.80;9.93;;;19.50;43.00;;;;;;5065034;28;20516;-69
2020/12/03 04:52:24;;;;;;;11.30;9.00;;;19.50;43.10;;;;;;5057456;28;20480;-68
2020/12/03 04:54:57;;;;;;;10.63;8.93;;;19.50;43.20;;;;;;5041726;28;20478;-72
2020/12/03 04:57:26;;;;;;;12.83;9.20;;;19.60;43.20;;;;;;5045106;28;21105;-72
2020/12/03 04:59:56;;;;;;;11.17;9.40;;;19.60;43.10;;;;;;5013113;28;20467;-68
2020/12/03 05:02:49;;;;;;;11.07;8.73;;;19.60;43.90;;;;;;5031419;28;20501;-70
2020/12/03 05:05:21;;;;;;;10.00;8.40;;;19.60;43.20;;;;;;5073446;28;20480;-69
2020/12/03 05:07:51;;;;;;;10.93;8.60;;;19.60;43.10;;;;;;5069612;28;20489;-68
2020/12/03 05:10:19;;;;;;;11.00;9.27;;;19.60;43.00;;;;;;5069808;28;20520;-69
2020/12/03 05:12:46;;;;;;;14.67;9.80;;;19.60;43.10;;;;;;5048327;28;20518;-68
2020/12/03 05:15:14;;;;;;;11.00;8.50;;;19.60;43.10;;;;;;5050588;28;20893;-69
2020/12/03 05:17:44;;;;;;;11.03;9.37;;;19.50;43.10;;;;;;5029760;28;20493;-67
2020/12/03 05:20:32;;;;;;;12.13;9.37;;;19.50;42.80;;;;;;5055736;28;20538;-69
2020/12/03 05:23:04;;;;;;;11.50;8.70;;;19.50;42.50;;;;;;5075164;28;21109;-68
2020/12/03 05:25:30;;;;;;;10.67;9.03;;;19.50;42.50;;;;;;5041695;28;20625;-69
2020/12/03 05:27:59;;;;;;;10.73;8.10;;;19.50;42.40;;;;;;5040483;28;20480;-69
2020/12/03 05:30:26;;;;;;;10.63;8.70;;;19.60;42.50;;;;;;5052780;28;20545;-66
2020/12/03 05:32:52;;;;;;;12.80;9.10;;;19.60;42.30;;;;;;5035755;28;20482;-70
2020/12/03 05:35:19;;;;;;;9.77;7.90;;;19.60;42.20;;;;;;5062170;28;20507;-68
2020/12/03 05:37:45;;;;;;;13.60;9.47;;;19.60;42.10;;;;;;5037543;28;21550;-68
2020/12/03 05:40:20;;;;;;;13.37;10.23;;;19.60;42.10;;;;;;5075052;28;21303;-68
2020/12/03 05:42:46;;;;;;;11.53;9.30;;;19.60;42.00;;;;;;5064870;28;20484;-68
2020/12/03 05:45:13;;;;;;;10.53;9.43;;;19.70;42.10;;;;;;5068447;28;20904;-69
2020/12/03 05:47:42;;;;;;;12.13;8.80;;;19.60;42.00;;;;;;5079062;28;20529;-69
2020/12/03 05:50:10;;;;;;;12.90;9.97;;;19.70;42.10;;;;;;5065192;28;20480;-69
2020/12/03 05:52:36;;;;;;;15.20;9.27;;;19.60;42.20;;;;;;5070189;28;20487;-69
2020/12/03 05:55:04;;;;;;;9.10;8.20;;;19.60;42.40;;;;;;5060654;28;20557;-68
2020/12/03 05:57:33;;;;;;;14.90;10.57;;;19.70;42.20;;;;;;5068258;28;20580;-69
2020/12/03 06:00:17;;;;;;;13.00;9.40;;;19.70;42.20;;;;;;5057700;28;20481;-70
2020/12/03 06:02:52;;;;;;;11.80;8.70;;;19.80;42.10;;;;;;5060340;28;20553;-71
2020/12/03 06:05:22;;;;;;;12.53;9.90;;;19.80;42.00;;;;;;5052655;28;21222;-68
2020/12/03 06:08:03;;;;;;;12.70;10.13;;;19.80;41.80;;;;;;5040095;28;20485;-69
2020/12/03 06:10:37;;;;;;;12.50;9.77;;;19.80;41.80;;;;;;5056994;28;21003;-71
2020/12/03 06:13:21;;;;;;;14.70;10.43;;;19.80;41.30;;;;;;5050592;28;21560;-68
2020/12/03 06:15:48;;;;;;;16.33;11.23;;;19.70;40.90;;;;;;5059173;28;20480;-67
2020/12/03 06:18:23;;;;;;;11.87;10.10;;;19.70;41.00;;;;;;5082130;28;20481;-68
2020/12/03 06:20:54;;;;;;;15.03;10.50;;;19.60;40.70;;;;;;5070836;28;20488;-70
2020/12/03 06:23:34;;;;;;;21.70;12.47;;;19.60;40.70;;;;;;5080326;28;21531;-69
2020/12/03 06:26:02;;;;;;;18.87;12.00;;;19.60;40.80;;;;;;5072725;28;20482;-70
2020/12/03 06:29:02;;;;;;;22.77;12.93;;;19.50;40.90;;;;;;5073345;28;20511;-70
2020/12/03 06:31:30;;;;;;;25.93;13.13;;;19.50;41.10;;;;;;5072829;28;20480;-70
2020/12/03 06:33:58;;;;;;;15.13;11.07;;;19.40;41.00;;;;;;5062216;28;20857;-68
2020/12/03 06:36:40;;;;;;;16.13;11.93;;;19.30;41.40;;;;;;5072354;28;20481;-69
2020/12/03 06:39:34;;;;;;;15.83;12.03;;;19.30;41.40;;;;;;5060239;28;20493;-69
2020/12/03 06:42:07;;;;;;;13.50;10.20;;;19.30;41.60;;;;;;5059766;28;20555;-69
2020/12/03 06:44:36;;;;;;;16.70;11.63;;;19.40;41.50;;;;;;5051075;28;20691;-69
2020/12/03 06:47:31;;;;;;;17.90;11.37;;;19.40;41.40;;;;;;5046695;28;20493;-69
2020/12/03 06:50:03;;;;;;;16.67;12.40;;;19.50;41.10;;;;;;5040632;28;20571;-72
2020/12/03 06:53:02;;;;;;;16.30;11.43;;;19.50;41.00;;;;;;5048531;28;22081;-69
2020/12/03 06:55:50;;;;;;;14.73;11.03;;;19.60;40.90;;;;;;5009313;28;20498;-70
2020/12/03 06:58:46;;;;;;;15.07;10.60;;;19.60;41.10;;;;;;5021733;28;20586;-68
2020/12/03 07:01:39;;;;;;;12.57;10.20;;;19.70;41.30;;;;;;5039756;28;22082;-69
2020/12/03 07:04:28;;;;;;;16.37;10.13;;;19.70;41.30;;;;;;5044122;28;20479;-68
2020/12/03 07:07:11;;;;;;;13.03;10.00;;;19.80;41.50;;;;;;5043574;28;20913;-69
2020/12/03 07:10:13;;;;;;;10.47;8.00;;;19.80;41.40;;;;;;5047994;28;20482;-69
2020/12/03 07:12:46;;;;;;;10.10;8.67;;;19.80;41.50;;;;;;5020016;28;20657;-69
2020/12/03 07:15:39;;;;;;;10.23;8.90;;;19.70;41.40;;;;;;5026013;28;20494;-67
2020/12/03 07:18:43;;;;;;;10.17;8.50;;;19.70;41.90;;;;;;5029684;28;20489;-70
2020/12/03 07:21:37;;;;;;;9.20;8.27;;;19.70;41.80;;;;;;5063294;28;20476;-73
2020/12/03 07:24:04;;;;;;;10.50;7.97;;;19.70;41.90;;;;;;5018371;28;20475;-68
2020/12/03 07:26:51;;;;;;;12.57;9.07;;;19.70;42.00;;;;;;5035266;28;20496;-68
2020/12/03 07:29:19;;;;;;;11.27;8.07;;;19.60;41.90;;;;;;5014887;28;20492;-69
2020/12/03 07:31:47;;;;;;;11.50;8.03;;;19.70;42.00;;;;;;5024371;28;20493;-69
2020/12/03 07:34:24;;;;;;;9.13;8.23;;;19.70;42.00;;;;;;5037503;28;20470;-69
2020/12/03 07:36:53;;;;;;;11.87;8.13;;;19.70;42.10;;;;;;5036106;28;20488;-70
2020/12/03 07:39:20;;;;;;;9.87;7.47;;;19.70;42.20;;;;;;5006640;28;20593;-69
2020/12/03 07:41:50;;;;;;;8.10;7.00;;;19.70;42.30;;;;;;5010921;28;20869;-70
2020/12/03 07:44:23;;;;;;;9.83;7.60;;;19.70;42.50;;;;;;5012607;28;20524;-69
2020/12/03 07:46:50;;;;;;;12.00;7.07;;;19.70;42.50;;;;;;5041067;28;20547;-70
2020/12/03 07:49:41;;;;;;;9.20;7.70;;;19.70;42.50;;;;;;5046931;28;20505;-69
2020/12/03 07:52:32;;;;;;;8.73;7.10;;;19.70;42.70;;;;;;5063869;28;20852;-69
2020/12/03 07:55:38;;;;;;;9.53;7.80;;;19.70;42.50;;;;;;5048351;28;21653;-69
2020/12/03 07:58:04;;;;;;;8.00;7.20;;;19.70;42.60;;;;;;4990220;28;20491;-70
2020/12/03 08:00:44;;;;;;;9.60;7.23;;;19.70;42.60;;;;;;4994641;28;22041;-69
2020/12/03 08:03:26;;;;;;;9.93;6.80;;;19.70;42.70;;;;;;5036942;28;20484;-70
2020/12/03 08:05:54;;;;;;;7.73;6.80;;;19.70;42.90;;;;;;5052759;28;20489;-69
2020/12/03 08:08:31;;;;;;;8.70;7.63;;;19.70;42.90;;;;;;5045627;28;20485;-70
2020/12/03 08:10:57;;;;;;;7.90;6.80;;;19.70;42.80;;;;;;5027294;28;21420;-69
2020/12/03 08:13:26;;;;;;;8.07;7.27;;;19.70;42.80;;;;;;5010052;28;20616;-68
2020/12/03 08:15:55;;;;;;;8.90;6.30;;;19.70;42.80;;;;;;5052154;28;20479;-68
2020/12/03 08:18:42;;;;;;;7.33;6.57;;;19.70;42.80;;;;;;5048948;28;20487;-70
2020/12/03 08:21:09;;;;;;;7.03;6.03;;;19.80;42.80;;;;;;5061659;28;20492;-71
2020/12/03 08:23:35;;;;;;;8.83;7.67;;;19.80;42.80;;;;;;5046464;28;20550;-68
2020/12/03 08:26:01;;;;;;;9.63;7.10;;;19.70;42.80;;;;;;5020327;28;20497;-67
2020/12/03 08:28:28;;;;;;;7.67;6.43;;;19.70;42.90;;;;;;5051299;28;20494;-68
2020/12/03 08:30:54;;;;;;;7.60;6.77;;;19.70;43.00;;;;;;5038703;28;20845;-69
2020/12/03 08:33:28;;;;;;;7.60;6.83;;;19.70;43.00;;;;;;5053002;28;20475;-66
2020/12/03 08:35:56;;;;;;;7.83;6.20;;;19.70;43.00;;;;;;5010557;28;20251;-68
2020/12/03 08:38:24;;;;;;;6.33;5.73;;;19.70;43.10;;;;;;5033246;28;20480;-69
2020/12/03 08:40:52;;;;;;;7.97;7.17;;;19.70;43.10;;;;;;5053368;28;20488;-69
2020/12/03 08:43:18;;;;;;;9.03;7.17;;;19.70;43.20;;;;;;5070307;28;20484;-69
2020/12/03 08:45:50;;;;;;;9.10;7.80;;;19.70;43.20;;;;;;5047353;28;20505;-68
2020/12/03 08:48:18;;;;;;;8.03;6.50;;;19.70;43.20;;;;;;5041743;28;20476;-69
2020/12/03 08:50:45;;;;;;;6.90;6.20;;;19.80;43.30;;;;;;5065407;28;20583;-71
2020/12/03 08:53:11;;;;;;;11.73;6.53;;;19.80;43.30;;;;;;5030484;28;20489;-68
2020/12/03 08:55:39;;;;;;;6.97;6.37;;;19.80;43.40;;;;;;4998991;28;20530;-69
2020/12/03 08:58:05;;;;;;;8.20;6.60;;;19.70;43.40;;;;;;4992950;28;20921;-67
2020/12/03 09:00:31;;;;;;;9.90;6.70;;;19.70;43.40;;;;;;5063245;28;20559;-70
2020/12/03 09:02:58;;;;;;;5.97;5.37;;;19.70;43.40;;;;;;5045741;28;20531;-69
2020/12/03 09:05:24;;;;;;;7.73;6.70;;;19.70;43.30;;;;;;5045191;28;21316;-70
2020/12/03 09:07:52;;;;;;;9.27;7.63;;;19.80;43.30;;;;;;5052625;28;20480;-70
2020/12/03 09:10:18;;;;;;;7.17;6.47;;;19.80;43.30;;;;;;5050165;28;20541;-69
2020/12/03 09:12:46;;;;;;;8.23;6.80;;;19.80;43.40;;;;;;5042248;28;20469;-69
2020/12/03 09:15:12;;;;;;;7.77;6.23;;;19.80;43.40;;;;;;5055541;28;21067;-70
2020/12/03 09:17:39;;;;;;;7.50;6.00;;;19.80;43.30;;;;;;5033598;28;20524;-69
2020/12/03 09:20:05;;;;;;;8.20;7.40;;;19.90;43.30;;;;;;5049387;28;20509;-69
2020/12/03 09:22:32;;;;;;;8.13;5.90;;;20.00;43.30;;;;;;5040611;28;20491;-69
2020/12/03 09:24:59;;;;;;;6.40;5.77;;;20.00;43.10;;;;;;5050837;28;20997;-70
2020/12/03 09:27:25;;;;;;;8.67;7.53;;;20.10;43.10;;;;;;5034841;28;20491;-69
2020/12/03 09:29:51;;;;;;;6.40;5.73;;;20.10;43.00;;;;;;5048212;28;20485;-69
2020/12/03 09:32:18;;;;;;;6.20;5.60;;;20.10;43.00;;;;;;5050125;28;20489;-69
2020/12/03 09:34:45;;;;;;;7.03;5.87;;;20.10;43.00;;;;;;5036396;28;20477;-70
2020/12/03 09:37:11;;;;;;;7.20;5.93;;;20.10;43.00;;;;;;5027621;28;20486;-69
2020/12/03 09:39:37;;;;;;;7.80;5.93;;;20.10;43.10;;;;;;5050573;28;20544;-68
2020/12/03 09:42:05;;;;;;;6.70;6.10;;;20.10;43.10;;;;;;5046843;28;20556;-69
2020/12/03 09:44:31;;;;;;;7.50;6.40;;;20.10;43.20;;;;;;5035550;28;20519;-69
2020/12/03 09:46:57;;;;;;;7.30;6.23;;;20.10;43.10;;;;;;5005087;28;20490;-68
2020/12/03 09:49:23;;;;;;;6.40;5.80;;;20.10;43.10;;;;;;5032393;28;20806;-69
2020/12/03 09:51:49;;;;;;;5.97;5.30;;;20.10;43.20;;;;;;5038661;28;20531;-70
2020/12/03 09:54:15;;;;;;;10.50;6.80;;;20.10;43.20;;;;;;5038846;28;20489;-69
2020/12/03 09:56:41;;;;;;;6.73;5.37;;;20.10;43.20;;;;;;5027568;28;20483;-68
2020/12/03 09:59:12;;;;;;;6.80;6.10;;;20.10;43.20;;;;;;5032068;28;21119;-71
2020/12/03 10:01:47;;;;;;;8.33;6.70;;;20.10;43.20;;;;;;5041344;28;20540;-69
2020/12/03 10:04:42;;;;;;;10.00;6.40;;;20.10;43.20;;;;;;5050342;28;21133;-69
2020/12/03 10:07:14;;;;;;;6.73;6.13;;;20.10;43.50;;;;;;5047804;28;20475;-68
2020/12/03 10:09:52;;;;;;;7.40;6.20;;;20.10;43.40;;;;;;5046219;28;20991;-70
2020/12/03 10:12:30;;;;;;;7.53;6.83;;;20.10;43.30;;;;;;5047708;28;20485;-69
2020/12/03 10:15:22;;;;;;;7.03;6.33;;;20.10;43.30;;;;;;5048194;28;21192;-68
2020/12/03 10:18:05;;;;;;;5.00;4.63;;;20.10;43.40;;;;;;5033889;28;20550;-70
2020/12/03 10:20:32;;;;;;;6.40;5.80;;;20.10;43.50;;;;;;5046866;28;20493;-68
2020/12/03 10:22:59;;;;;;;6.97;6.30;;;20.10;44.30;;;;;;5042836;28;20489;-68
2020/12/03 10:25:27;;;;;;;6.43;5.90;;;20.10;43.50;;;;;;5072129;27;20526;-68
2020/12/03 10:27:59;;;;;;;9.00;6.20;;;20.00;43.40;;;;;;5048148;28;21008;-69
2020/12/03 10:30:32;;;;;;;7.70;5.00;;;20.00;43.40;;;;;;5072585;28;20477;-73
2020/12/03 10:33:00;;;;;;;7.20;5.83;;;20.00;43.50;;;;;;5063043;28;20466;-66
2020/12/03 10:35:26;;;;;;;6.47;5.80;;;20.00;43.50;;;;;;5045976;28;20908;-68
2020/12/03 10:37:54;;;;;;;6.17;5.07;;;20.00;43.50;;;;;;5026856;28;20905;-68
2020/12/03 10:40:20;;;;;;;6.03;5.47;;;20.00;43.60;;;;;;5009900;28;21201;-68
2020/12/03 10:42:48;;;;;;;7.10;6.37;;;19.90;43.70;;;;;;5031918;28;20559;-68
2020/12/03 10:45:18;;;;;;;5.80;5.30;;;19.90;43.70;;;;;;5056181;28;20485;-69
2020/12/03 10:47:47;;;;;;;5.60;5.00;;;19.90;43.70;;;;;;5045461;28;20476;-68
2020/12/03 10:50:15;;;;;;;6.47;5.77;;;19.90;43.80;;;;;;5061928;27;20567;-67
2020/12/03 10:52:41;;;;;;;6.60;5.43;;;19.90;43.80;;;;;;5069041;28;20488;-68
2020/12/03 10:55:08;;;;;;;5.83;5.33;;;19.90;43.80;;;;;;5064429;28;20577;-69
2020/12/03 10:57:34;;;;;;;5.33;4.83;;;20.00;43.90;;;;;;5033476;28;20549;-69
2020/12/03 11:00:00;;;;;;;6.60;6.00;;;20.00;43.90;;;;;;5036003;28;20494;-69
2020/12/03 11:02:27;;;;;;;6.67;6.03;;;20.00;43.80;;;;;;5071160;28;20492;-69
2020/12/03 11:04:54;;;;;;;6.90;6.10;;;20.00;43.90;;;;;;5059272;28;20512;-69
2020/12/03 11:07:20;;;;;;;5.97;5.27;;;20.10;43.80;;;;;;5058847;28;20498;-71
2020/12/03 11:09:51;;;;;;;6.70;5.70;;;20.10;43.70;;;;;;5058388;28;20493;-69
2020/12/03 11:12:17;;;;;;;7.43;5.60;;;20.10;43.70;;;;;;5072590;28;20485;-68
2020/12/03 11:14:43;;;;;;;7.20;6.37;;;20.10;43.70;;;;;;5058998;28;20587;-70
2020/12/03 11:17:14;;;;;;;6.00;5.50;;;20.10;43.80;;;;;;5056538;28;20565;-69
2020/12/03 11:19:40;;;;;;;6.63;5.30;;;20.10;43.80;;;;;;5063419;28;20488;-70
2020/12/03 11:22:15;;;;;;;6.10;5.60;;;20.00;43.80;;;;;;5067087;28;20485;-70
2020/12/03 11:24:44;;;;;;;6.23;5.37;;;20.00;43.90;;;;;;5055735;28;20494;-68
2020/12/03 11:27:10;;;;;;;7.97;5.50;;;20.00;44.10;;;;;;5037744;28;20485;-71
2020/12/03 11:29:36;;;;;;;6.53;5.30;;;20.00;44.10;;;;;;5037326;28;20474;-67
2020/12/03 11:32:02;;;;;;;5.53;4.93;;;20.00;44.10;;;;;;5040627;28;20482;-69
2020/12/03 11:34:35;;;;;;;6.07;5.33;;;20.00;44.20;;;;;;5047373;28;21217;-70
2020/12/03 11:37:01;;;;;;;5.43;4.83;;;19.90;44.00;;;;;;5032842;28;21032;-69
2020/12/03 11:39:29;;;;;;;5.53;5.03;;;19.90;44.10;;;;;;5025717;28;20788;-68
2020/12/03 11:42:13;;;;;;;6.40;5.90;;;20.00;44.30;;;;;;5056472;28;20584;-69
2020/12/03 11:44:57;;;;;;;5.57;4.70;;;20.00;44.10;;;;;;5030072;28;20961;-70
2020/12/03 11:47:45;;;;;;;5.20;4.70;;;20.10;44.80;;;;;;5064070;27;20488;-68
2020/12/03 11:50:14;;;;;;;5.87;5.47;;;20.10;43.80;;;;;;5066148;28;20488;-69
2020/12/03 11:52:41;;;;;;;5.30;4.80;;;20.10;43.90;;;;;;5066129;28;20533;-70
2020/12/03 11:55:18;;;;;;;5.60;5.10;;;20.10;44.00;;;;;;5073076;28;20465;-70
2020/12/03 11:57:44;;;;;;;6.43;5.13;;;20.10;44.10;;;;;;5058655;28;20506;-69
2020/12/03 12:00:16;;;;;;;5.70;5.10;;;20.00;44.20;;;;;;5025440;28;20487;-70
2020/12/03 12:02:42;;;;;;;6.40;5.67;;;20.00;44.10;;;;;;5064838;28;20508;-70
2020/12/03 12:05:15;;;;;;;4.73;4.33;;;20.00;44.20;;;;;;5057115;28;20516;-69
2020/12/03 12:07:50;;;;;;;4.80;4.40;;;20.10;44.20;;;;;;5038088;28;20893;-70
2020/12/03 12:10:22;;;;;;;7.73;6.00;;;20.00;44.10;;;;;;5051656;28;20486;-69
2020/12/03 12:12:48;;;;;;;5.33;4.90;;;20.10;44.10;;;;;;5038964;28;20566;-67
2020/12/03 12:15:14;;;;;;;5.80;5.30;;;20.10;44.10;;;;;;5009284;28;21176;-69
2020/12/03 12:17:40;;;;;;;4.27;3.97;;;20.10;44.10;;;;;;5032322;28;20497;-70
2020/12/03 12:20:08;;;;;;;5.87;5.27;;;20.10;44.10;;;;;;5039846;28;20485;-70
2020/12/03 12:22:34;;;;;;;5.63;5.13;;;20.00;44.20;;;;;;5014454;28;20506;-68
2020/12/03 12:25:01;;;;;;;5.87;4.97;;;20.00;44.30;;;;;;5037757;28;20536;-71
2020/12/03 12:27:28;;;;;;;5.43;4.93;;;19.90;44.20;;;;;;5052374;28;20544;-68
2020/12/03 12:29:54;;;;;;;6.67;6.07;;;19.90;44.50;;;;;;5032401;28;20473;-69
2020/12/03 12:32:21;;;;;;;6.80;5.87;;;19.90;44.50;;;;;;5025017;28;20480;-68
2020/12/03 12:34:47;;;;;;;5.43;4.73;;;19.90;44.50;;;;;;5032148;28;20486;-69
2020/12/03 12:37:13;;;;;;;6.07;5.47;;;19.90;44.70;;;;;;5025807;28;21185;-70
2020/12/03 12:39:39;;;;;;;5.20;4.70;;;19.90;44.70;;;;;;5026021;28;20483;-70
2020/12/03 12:42:07;;;;;;;5.93;5.20;;;19.90;44.80;;;;;;5018246;28;21063;-68
2020/12/03 12:44:34;;;;;;;6.00;5.30;;;19.90;44.90;;;;;;5060762;28;20885;-68
2020/12/03 12:47:01;;;;;;;5.30;4.90;;;19.90;44.80;;;;;;5017278;28;20519;-69
2020/12/03 12:49:27;;;;;;;5.77;5.27;;;19.80;44.80;;;;;;5039449;28;21113;-70
2020/12/03 12:51:54;;;;;;;6.20;5.60;;;19.80;44.80;;;;;;5038445;28;20477;-71
2020/12/03 12:54:22;;;;;;;5.30;4.83;;;19.80;44.80;;;;;;5052107;28;20535;-70